Time;durP1;ratioP1;P1;durP2;ratioP2;P2;SDS_P1;SDS_P2;PMS_P1;PMS_P2;Temp;Humidity;BMP_temperature;BMP_pressure;BME280_temperature;BME280_humidity;BME280_pressure;Samples;Min_cycle;Max_cycle;Signal;HPM_P1;HPM_P2
2022/07/06 00:01:33;;;;;;;5.78;2.35;;;;;;;13.01;66.44;102488.91;4730254;30;20049;-92
2022/07/06 00:03:58;;;;;;;6.15;2.20;;;;;;;12.97;65.76;102484.50;4742820;30;20104;-91
2022/07/06 00:06:24;;;;;;;4.72;2.17;;;;;;;12.86;66.78;102487.22;4742284;30;20176;-91
2022/07/06 00:08:50;;;;;;;5.50;1.98;;;;;;;12.87;67.44;102490.75;4742478;30;20382;-91
2022/07/06 00:11:16;;;;;;;5.45;2.17;;;;;;;12.91;66.59;102505.81;4755938;30;20088;-91
2022/07/06 00:13:41;;;;;;;5.50;2.00;;;;;;;12.77;67.28;102486.38;4743639;30;20426;-91
2022/07/06 00:16:07;;;;;;;4.40;2.03;;;;;;;12.80;65.99;102494.34;4743250;30;20110;-91
2022/07/06 00:18:33;;;;;;;5.72;2.88;;;;;;;12.70;66.72;102477.53;4757375;30;20039;-93
2022/07/06 00:20:58;;;;;;;11.07;2.28;;;;;;;12.74;67.50;102491.72;4743125;30;20357;-91
2022/07/06 00:23:24;;;;;;;2.67;1.73;;;;;;;12.67;67.21;102491.72;4742132;30;20083;-92
2022/07/06 00:25:50;;;;;;;4.72;1.95;;;;;;;12.70;66.81;102498.81;4728074;30;20035;-92
2022/07/06 00:28:15;;;;;;;11.90;2.25;;;;;;;12.65;68.66;102508.56;4742586;30;20032;-91
2022/07/06 00:30:41;;;;;;;6.13;2.40;;;;;;;12.69;68.33;102513.00;4742123;30;20044;-93
2022/07/06 00:33:07;;;;;;;6.63;2.22;;;;;;;12.65;67.69;102503.25;4751678;30;20498;-93
2022/07/06 00:35:33;;;;;;;3.75;2.05;;;;;;;12.67;68.47;102501.47;4747735;30;20058;-91
2022/07/06 00:37:59;;;;;;;7.57;2.00;;;;;;;12.59;68.33;102496.19;4741505;30;20027;-91
2022/07/06 00:40:24;;;;;;;4.60;2.10;;;;;;;12.60;69.29;102505.06;4742085;30;20409;-92
2022/07/06 00:42:50;;;;;;;5.07;2.00;;;;;;;12.55;68.95;102496.22;4742017;30;20031;-94
2022/07/06 00:45:17;;;;;;;4.10;2.40;;;;;;;12.54;67.73;102498.00;4742136;30;20036;-93
2022/07/06 00:47:43;;;;;;;3.60;2.08;;;;;;;12.40;68.55;102484.75;4756640;30;20039;-93
2022/07/06 00:50:14;;;;;;;3.22;1.90;;;;;;;12.39;67.56;102488.31;4741654;30;20040;-92
2022/07/06 00:52:42;;;;;;;7.97;2.30;;;;;;;12.36;69.30;102490.06;4729989;30;20091;-92
2022/07/06 00:55:09;;;;;;;4.47;2.17;;;;;;;12.31;68.38;102497.16;4756521;30;20031;-91
2022/07/06 00:57:36;;;;;;;7.55;2.70;;;;;;;12.36;69.21;102506.00;4741374;30;20039;-91
2022/07/06 01:00:04;;;;;;;4.13;2.10;;;;;;;12.21;68.34;102483.91;4741218;30;20056;-91
2022/07/06 01:02:31;;;;;;;4.22;2.08;;;;;;;12.33;69.30;102506.03;4741429;30;20368;-92
2022/07/06 01:05:00;;;;;;;8.35;2.63;;;;;;;12.21;68.95;102489.22;4741182;30;20177;-91
2022/07/06 01:07:28;;;;;;;4.13;2.00;;;;;;;12.19;69.07;102490.09;4741000;30;20035;-89
2022/07/06 01:09:54;;;;;;;5.10;2.50;;;;;;;12.01;68.64;102483.94;4755158;30;20047;-89
2022/07/06 01:12:20;;;;;;;7.60;2.42;;;;;;;12.04;70.18;102501.63;4731390;30;20040;-88
2022/07/06 01:14:48;;;;;;;6.82;2.30;;;;;;;11.91;69.81;102484.84;4750497;30;20060;-89
2022/07/06 01:17:15;;;;;;;7.00;2.47;;;;;;;11.92;70.41;102493.69;4755318;30;20123;-89
2022/07/06 01:19:42;;;;;;;3.65;2.20;;;;;;;11.85;70.86;102484.84;4737866;30;20502;-89
2022/07/06 01:22:08;;;;;;;11.25;2.95;;;;;;;11.93;70.02;102496.34;4739882;30;20096;-88
2022/07/06 01:24:37;;;;;;;3.90;2.42;;;;;;;11.89;70.78;102491.03;4755233;30;20109;-89
2022/07/06 01:27:04;;;;;;;8.70;2.70;;;;;;;11.92;71.26;102501.66;4754745;30;20035;-89
2022/07/06 01:29:30;;;;;;;5.25;2.60;;;;;;;11.88;71.23;102487.50;4737387;30;20047;-88
2022/07/06 01:31:57;;;;;;;4.70;2.47;;;;;;;11.93;70.82;102498.13;4739523;30;20452;-89
2022/07/06 01:34:25;;;;;;;6.40;2.60;;;;;;;11.89;71.76;102506.97;4740119;30;20023;-89
2022/07/06 01:36:50;;;;;;;5.63;2.28;;;;;;;11.74;69.66;102491.91;4739695;30;20602;-89
2022/07/06 01:39:18;;;;;;;5.45;2.55;;;;;;;11.61;69.80;102475.97;4739904;30;20420;-89
2022/07/06 01:41:44;;;;;;;6.07;2.53;;;;;;;11.52;70.24;102478.66;4739700;30;20105;-89
2022/07/06 01:44:10;;;;;;;5.18;2.38;;;;;;;11.44;71.48;102477.75;4736682;30;20024;-88
2022/07/06 01:46:37;;;;;;;3.97;2.53;;;;;;;11.44;72.62;102488.34;4754570;30;20439;-89
2022/07/06 01:49:04;;;;;;;4.53;2.50;;;;;;;11.36;73.13;102492.78;4736596;30;20024;-89
2022/07/06 01:51:30;;;;;;;5.53;2.88;;;;;;;11.31;72.95;102489.25;4751455;30;20402;-89
2022/07/06 01:53:57;;;;;;;3.55;2.40;;;;;;;11.25;72.38;102482.16;4751789;30;20055;-88
2022/07/06 01:56:24;;;;;;;5.03;2.58;;;;;;;11.23;71.65;102494.53;4741968;30;20044;-88
2022/07/06 01:58:55;;;;;;;4.80;2.33;;;;;;;11.30;73.24;102506.94;4722894;30;20036;-90
2022/07/06 02:01:24;;;;;;;12.55;2.95;;;;;;;11.14;74.14;102497.16;4739554;30;20055;-89
2022/07/06 02:03:50;;;;;;;6.18;2.60;;;;;;;11.16;73.35;102495.41;4724708;30;20417;-89
2022/07/06 02:06:15;;;;;;;6.70;2.78;;;;;;;11.15;72.99;102502.47;4739457;30;20035;-88
2022/07/06 02:08:42;;;;;;;8.48;2.90;;;;;;;11.06;72.89;102483.00;4739358;30;20115;-88
2022/07/06 02:11:09;;;;;;;9.27;3.97;;;;;;;11.09;72.98;102494.50;4753863;30;20032;-89
2022/07/06 02:13:37;;;;;;;7.47;2.75;;;;;;;11.04;72.96;102490.06;4736753;30;20109;-88
2022/07/06 02:16:05;;;;;;;8.18;3.15;;;;;;;11.07;75.29;102498.91;4737139;30;20035;-88
2022/07/06 02:18:34;;;;;;;7.40;3.38;;;;;;;10.98;75.31;102493.59;4754003;30;20036;-89
2022/07/06 02:20:59;;;;;;;5.50;2.92;;;;;;;11.02;73.93;102508.59;4740611;30;20031;-88
2022/07/06 02:23:26;;;;;;;3.67;2.60;;;;;;;11.02;73.46;102510.38;4725650;30;20032;-88
2022/07/06 02:25:52;;;;;;;5.35;3.10;;;;;;;10.90;73.28;102496.19;4749576;30;20047;-88
2022/07/06 02:28:18;;;;;;;6.45;3.63;;;;;;;10.93;74.81;102498.88;4752968;30;20036;-88
2022/07/06 02:30:43;;;;;;;5.55;3.20;;;;;;;10.92;75.44;102505.03;4746883;30;20031;-88
2022/07/06 02:33:11;;;;;;;5.57;3.30;;;;;;;10.93;75.76;102504.19;4754184;30;20074;-88
2022/07/06 02:35:41;;;;;;;6.93;3.22;;;;;;;10.82;75.03;102487.34;4739222;30;20051;-87
2022/07/06 02:38:08;;;;;;;6.38;3.30;;;;;;;10.87;74.62;102490.88;4738729;30;20185;-87
2022/07/06 02:40:34;;;;;;;6.70;3.50;;;;;;;10.88;75.18;102489.13;4753396;30;20127;-87
2022/07/06 02:42:59;;;;;;;5.22;3.47;;;;;;;10.88;75.25;102483.81;4753382;30;20501;-87
2022/07/06 02:45:25;;;;;;;6.78;3.63;;;;;;;10.88;74.93;102489.13;4750720;30;20040;-87
2022/07/06 02:47:51;;;;;;;8.75;3.58;;;;;;;10.92;75.07;102505.03;4753921;30;20042;-87
2022/07/06 02:50:17;;;;;;;7.63;3.63;;;;;;;10.92;74.60;102494.44;4724340;30;20044;-87
2022/07/06 02:52:43;;;;;;;5.00;3.40;;;;;;;10.90;74.97;102497.97;4738516;30;20073;-88
2022/07/06 02:55:10;;;;;;;5.75;3.65;;;;;;;10.82;75.14;102484.69;4753503;30;20067;-86
2022/07/06 02:57:35;;;;;;;11.57;3.92;;;;;;;10.85;76.50;102500.59;4735885;30;20071;-88
2022/07/06 03:00:02;;;;;;;10.52;3.40;;;;;;;10.80;74.76;102485.56;4736095;30;20485;-88
2022/07/06 03:02:30;;;;;;;5.93;3.60;;;;;;;10.79;76.15;102495.28;4743383;30;20040;-87
2022/07/06 03:04:56;;;;;;;5.22;3.53;;;;;;;10.80;76.95;102505.00;4738001;30;20036;-87
2022/07/06 03:07:22;;;;;;;4.97;3.65;;;;;;;10.79;76.89;102512.97;4749134;30;20040;-89
2022/07/06 03:09:48;;;;;;;6.35;4.07;;;;;;;10.66;77.38;102510.25;4727195;30;20485;-87
2022/07/06 03:12:15;;;;;;;7.85;4.40;;;;;;;10.61;77.07;102498.75;4737512;30;20036;-88
2022/07/06 03:14:42;;;;;;;7.20;3.90;;;;;;;10.68;76.74;102511.16;4744492;30;20047;-88
2022/07/06 03:17:11;;;;;;;5.60;3.72;;;;;;;10.74;77.41;102518.25;4747108;30;20135;-88
2022/07/06 03:19:36;;;;;;;8.68;4.22;;;;;;;10.61;75.62;102504.06;4726908;30;20040;-88
2022/07/06 03:22:03;;;;;;;9.45;4.15;;;;;;;10.66;75.76;102510.25;4734545;30;20043;-88
2022/07/06 03:24:28;;;;;;;9.05;4.05;;;;;;;10.69;77.62;102520.88;4744390;30;20114;-88
2022/07/06 03:26:54;;;;;;;6.93;4.25;;;;;;;10.70;76.30;102512.03;4732314;30;20412;-88
2022/07/06 03:29:20;;;;;;;6.35;4.38;;;;;;;10.71;76.62;102508.50;4749138;30;20028;-88
2022/07/06 03:31:47;;;;;;;8.18;4.35;;;;;;;10.63;76.38;102493.44;4737905;30;20042;-87
2022/07/06 03:34:13;;;;;;;10.48;4.75;;;;;;;10.74;77.41;102516.47;4743152;30;20032;-88
2022/07/06 03:36:39;;;;;;;8.32;4.13;;;;;;;10.62;76.58;102503.16;4740867;30;20051;-88
2022/07/06 03:39:07;;;;;;;5.60;4.00;;;;;;;10.67;77.29;102513.78;4754059;30;20036;-88
2022/07/06 03:41:35;;;;;;;6.55;4.15;;;;;;;10.60;77.25;102507.56;4738539;30;20647;-88
2022/07/06 03:44:02;;;;;;;8.20;4.32;;;;;;;10.59;77.60;102504.94;4738485;30;20047;-88
2022/07/06 03:46:29;;;;;;;11.65;4.82;;;;;;;10.53;78.72;102497.81;4738688;30;20032;-88
2022/07/06 03:48:54;;;;;;;7.65;3.88;;;;;;;10.55;77.95;102515.47;4755759;30;20122;-88
2022/07/06 03:51:20;;;;;;;12.43;4.30;;;;;;;10.56;78.04;102503.16;4756220;30;20400;-88
2022/07/06 03:53:46;;;;;;;7.50;4.30;;;;;;;10.62;78.10;102521.72;4741583;30;20445;-88
2022/07/06 03:56:30;;;;;;;6.30;4.65;;;;;;;10.60;78.18;102519.94;4756003;30;20481;-88
2022/07/06 03:59:02;;;;;;;7.35;4.07;;;;;;;10.62;77.70;102512.88;4755886;30;20108;-87
2022/07/06 04:01:31;;;;;;;9.93;4.07;;;;;;;10.55;77.11;102504.88;4741702;30;20077;-88
2022/07/06 04:03:58;;;;;;;5.78;4.18;;;;;;;10.63;76.40;102522.59;4726731;30;20512;-88
2022/07/06 04:06:24;;;;;;;12.02;4.50;;;;;;;10.53;78.70;102497.81;4741394;30;20124;-88
2022/07/06 04:08:50;;;;;;;7.03;4.35;;;;;;;10.53;79.34;102506.66;4738251;30;20393;-88
2022/07/06 04:11:16;;;;;;;8.95;4.45;;;;;;;10.58;78.29;102517.25;4741131;30;20030;-87
2022/07/06 04:13:42;;;;;;;8.77;4.10;;;;;;;10.48;78.46;102500.47;4754604;30;20035;-88
2022/07/06 04:16:08;;;;;;;7.18;4.05;;;;;;;10.51;77.91;102496.94;4755395;30;20118;-87
2022/07/06 04:18:34;;;;;;;5.68;4.07;;;;;;;10.58;78.54;102500.50;4755839;30;20050;-88
2022/07/06 04:20:59;;;;;;;7.20;4.57;;;;;;;10.57;78.31;102499.59;4740830;30;20040;-88
2022/07/06 04:23:27;;;;;;;7.22;4.40;;;;;;;10.51;78.73;102491.66;4755650;30;20036;-88
2022/07/06 04:25:56;;;;;;;7.15;3.80;;;;;;;10.59;78.91;102502.28;4741093;30;20477;-88
2022/07/06 04:28:24;;;;;;;6.25;3.75;;;;;;;10.51;77.96;102499.59;4725933;30;20090;-88
2022/07/06 04:30:50;;;;;;;7.45;3.85;;;;;;;10.50;77.62;102488.09;4740558;30;20043;-87
2022/07/06 04:33:19;;;;;;;5.38;3.75;;;;;;;10.62;77.67;102513.75;4740457;30;20372;-87
2022/07/06 04:35:47;;;;;;;8.05;3.97;;;;;;;10.65;77.42;102511.13;4755201;30;20082;-88
2022/07/06 04:38:13;;;;;;;6.28;3.90;;;;;;;10.62;77.43;102496.97;4741112;30;20540;-87
2022/07/06 04:40:39;;;;;;;7.60;4.43;;;;;;;10.69;76.90;102515.56;4742062;30;20058;-87
2022/07/06 04:43:09;;;;;;;8.15;4.07;;;;;;;10.61;78.93;102493.47;4744844;30;20330;-88
2022/07/06 04:45:36;;;;;;;12.02;4.30;;;;;;;10.67;78.59;102497.88;4754828;30;20046;-88
2022/07/06 04:48:02;;;;;;;6.82;4.60;;;;;;;10.64;78.86;102476.69;4758183;30;20028;-88
2022/07/06 04:50:28;;;;;;;9.77;4.18;;;;;;;10.78;78.26;102498.84;4754974;30;20040;-87
2022/07/06 04:52:57;;;;;;;11.15;4.68;;;;;;;10.79;78.24;102494.41;4769965;30;20092;-87
2022/07/06 04:55:23;;;;;;;10.05;4.50;;;;;;;10.85;78.66;102503.25;4743672;30;20552;-88
2022/07/06 04:57:51;;;;;;;6.78;4.45;;;;;;;10.92;78.81;102494.44;4736419;30;20042;-88
2022/07/06 05:00:18;;;;;;;9.20;4.18;;;;;;;10.94;78.81;102494.47;4727394;30;20056;-88
2022/07/06 05:02:46;;;;;;;5.65;4.07;;;;;;;11.03;78.78;102506.84;4736864;30;20044;-89
2022/07/06 05:05:11;;;;;;;7.50;4.30;;;;;;;11.05;79.48;102498.00;4722556;30;20461;-88
2022/07/06 05:07:40;;;;;;;6.95;4.50;;;;;;;11.19;79.30;102517.50;4737358;30;20040;-87
2022/07/06 05:10:08;;;;;;;8.45;4.50;;;;;;;11.16;78.74;102501.59;4723355;30;20036;-88
2022/07/06 05:12:34;;;;;;;6.90;4.40;;;;;;;11.25;79.37;102507.78;4737089;30;20035;-87
2022/07/06 05:15:00;;;;;;;5.85;4.00;;;;;;;11.31;79.42;102506.03;4751586;30;20062;-87
2022/07/06 05:17:26;;;;;;;7.68;4.10;;;;;;;11.37;78.17;102502.50;4751883;30;20489;-88
2022/07/06 05:19:52;;;;;;;7.55;4.55;;;;;;;11.50;78.74;102503.38;4736954;30;20040;-87
2022/07/06 05:22:18;;;;;;;10.82;4.75;;;;;;;11.68;78.76;102516.69;4723691;30;20108;-86
2022/07/06 05:24:45;;;;;;;10.00;4.25;;;;;;;11.79;78.69;102514.03;4740751;30;20092;-87
2022/07/06 05:27:11;;;;;;;8.32;3.95;;;;;;;11.91;78.42;102519.34;4737550;30;20170;-87
2022/07/06 05:29:37;;;;;;;10.85;4.70;;;;;;;11.90;77.61;102504.31;4722305;30;20066;-87
2022/07/06 05:32:03;;;;;;;9.13;3.80;;;;;;;12.08;78.07;102529.97;4751564;30;20036;-88
2022/07/06 05:34:29;;;;;;;7.40;3.90;;;;;;;12.21;78.66;102523.75;4730907;30;20036;-87
2022/07/06 05:36:55;;;;;;;7.72;3.88;;;;;;;12.35;78.37;102533.47;4751256;30;20123;-87
2022/07/06 05:39:22;;;;;;;7.38;3.97;;;;;;;12.36;77.27;102521.94;4722140;30;20174;-88
2022/07/06 05:41:49;;;;;;;5.53;3.55;;;;;;;12.43;76.89;102524.59;4716987;30;20035;-87
2022/07/06 05:44:15;;;;;;;7.95;3.85;;;;;;;12.49;76.96;102518.38;4736874;30;20123;-87
2022/07/06 05:46:41;;;;;;;14.15;4.13;;;;;;;12.64;76.57;102528.09;4729511;30;20039;-88
2022/07/06 05:51:51;;;;;;;8.48;4.32;;;;;;;12.56;77.55;102520.13;4765738;30;20131;-88
2022/07/06 05:54:18;;;;;;;7.15;4.28;;;;;;;12.66;76.42;102515.66;4737296;30;20410;-87
2022/07/06 05:56:43;;;;;;;7.72;3.63;;;;;;;12.73;77.61;102511.19;4747704;30;20048;-87
2022/07/06 05:59:09;;;;;;;5.40;3.70;;;;;;;12.94;78.23;102515.56;4736698;30;20066;-87
2022/07/06 06:01:35;;;;;;;7.47;3.83;;;;;;;13.09;75.70;102526.97;4748871;30;20124;-88
2022/07/06 06:04:08;;;;;;;8.65;3.58;;;;;;;13.26;75.11;102534.88;4738387;30;20047;-87
2022/07/06 06:06:33;;;;;;;7.70;3.47;;;;;;;13.33;76.55;102523.34;4718029;30;20131;-87
2022/07/06 06:08:59;;;;;;;7.82;3.60;;;;;;;13.58;77.10;102530.28;4737148;30;20032;-86
2022/07/06 06:11:32;;;;;;;11.75;3.75;;;;;;;13.79;75.67;102524.75;4734313;30;20036;-87
2022/07/06 06:13:59;;;;;;;5.00;2.38;;;;;;;14.03;75.27;102525.44;4731052;30;20121;-87
2022/07/06 06:16:25;;;;;;;7.82;2.40;;;;;;;14.24;74.35;102541.22;4737406;30;20020;-87
2022/07/06 06:18:51;;;;;;;4.15;1.67;;;;;;;14.24;72.01;102529.66;4745867;30;20508;-87
2022/07/06 06:21:16;;;;;;;4.65;1.90;;;;;;;14.38;72.11;102536.63;4737433;30;20441;-87
2022/07/06 06:23:42;;;;;;;5.60;2.20;;;;;;;14.37;71.92;102520.66;4731736;30;20059;-88
2022/07/06 06:26:08;;;;;;;4.10;1.85;;;;;;;14.50;71.45;102532.94;4739473;30;20386;-88
2022/07/06 06:28:33;;;;;;;9.05;1.63;;;;;;;14.51;70.98;102529.38;4754726;30;20047;-88
2022/07/06 06:30:59;;;;;;;3.75;1.38;;;;;;;14.52;69.76;102525.81;4734407;30;20032;-87
2022/07/06 06:33:25;;;;;;;2.55;1.40;;;;;;;14.53;70.30;102524.94;4737004;30;20040;-87
2022/07/06 06:35:55;;;;;;;4.72;1.50;;;;;;;14.69;70.17;102538.09;4738067;30;20039;-87
2022/07/06 06:38:43;;;;;;;7.07;1.60;;;;;;;14.73;69.46;102542.50;4750756;30;20056;-87
2022/07/06 06:41:11;;;;;;;3.40;1.63;;;;;;;14.79;69.83;102521.97;4727456;30;20305;-89
2022/07/06 06:43:38;;;;;;;3.00;1.42;;;;;;;14.90;69.82;102513.81;4750790;30;20115;-89
2022/07/06 06:46:12;;;;;;;4.18;1.80;;;;;;;15.08;68.26;102544.69;4751397;30;20090;-88
2022/07/06 06:48:39;;;;;;;4.65;1.70;;;;;;;15.05;67.68;102526.06;4751080;30;20048;-89
2022/07/06 06:51:08;;;;;;;4.82;1.55;;;;;;;15.13;66.92;102526.84;4728335;30;20043;-89
2022/07/06 06:53:33;;;;;;;4.05;1.48;;;;;;;15.29;67.12;102542.66;4733314;30;20435;-88
2022/07/06 06:56:16;;;;;;;4.53;1.50;;;;;;;15.37;67.25;102546.97;4725306;30;20036;-89
2022/07/06 06:59:01;;;;;;;3.47;1.63;;;;;;;15.41;65.86;102531.81;4740339;30;20052;-89
2022/07/06 07:01:45;;;;;;;2.92;1.33;;;;;;;15.53;66.21;102542.31;4721847;30;20051;-88
2022/07/06 07:04:11;;;;;;;5.32;1.60;;;;;;;15.49;66.00;102527.22;4732063;30;20051;-89
2022/07/06 07:06:39;;;;;;;3.90;1.70;;;;;;;15.52;65.95;102527.16;4721614;30;20039;-90
2022/07/06 07:09:05;;;;;;;5.40;1.90;;;;;;;15.55;66.05;102531.56;4735256;30;20385;-90
2022/07/06 07:11:31;;;;;;;5.35;1.50;;;;;;;15.60;66.09;102533.28;4738056;30;20031;-89
2022/07/06 07:13:57;;;;;;;3.13;1.38;;;;;;;15.82;65.11;102543.63;4730955;30;20032;-90
2022/07/06 07:16:33;;;;;;;3.83;1.15;;;;;;;15.90;65.03;102544.41;4734396;30;20056;-89
2022/07/06 07:18:58;;;;;;;3.40;1.50;;;;;;;15.99;64.77;102544.22;4744130;30;20055;-90
2022/07/06 07:21:30;;;;;;;4.05;1.40;;;;;;;16.12;62.28;102545.78;4753803;30;20432;-89
2022/07/06 07:24:07;;;;;;;2.67;1.02;;;;;;;16.15;62.22;102542.19;4745481;30;20051;-88
2022/07/06 07:26:33;;;;;;;2.90;1.13;;;;;;;16.27;61.90;102533.03;4738106;30;20143;-89
2022/07/06 07:28:58;;;;;;;4.20;1.50;;;;;;;16.54;61.01;102551.25;4733386;30;20047;-88
2022/07/06 07:31:24;;;;;;;5.60;1.73;;;;;;;16.55;60.42;102531.59;4753037;30;20067;-88
2022/07/06 07:34:00;;;;;;;4.55;1.60;;;;;;;16.62;60.13;102540.41;4727884;30;20016;-89
2022/07/06 07:36:26;;;;;;;8.70;1.90;;;;;;;16.82;59.26;102553.41;4754557;30;20147;-89
2022/07/06 07:38:54;;;;;;;3.28;1.60;;;;;;;16.93;59.70;102537.09;4729057;30;20134;-89
2022/07/06 07:41:19;;;;;;;3.28;1.50;;;;;;;17.23;59.60;102548.06;4738734;30;20035;-89
2022/07/06 07:43:45;;;;;;;4.10;1.30;;;;;;;17.35;58.73;102531.72;4732269;30;20036;-90
2022/07/06 07:46:11;;;;;;;2.03;1.30;;;;;;;17.47;57.97;102530.56;4738293;30;20473;-90
2022/07/06 07:48:36;;;;;;;3.42;1.40;;;;;;;17.41;57.64;102548.53;4725353;30;20048;-88
2022/07/06 07:51:03;;;;;;;4.07;1.50;;;;;;;17.34;58.32;102541.56;4738129;30;20060;-88
2022/07/06 07:53:28;;;;;;;2.35;1.20;;;;;;;17.52;57.73;102534.00;4737576;30;20066;-89
2022/07/06 07:55:54;;;;;;;4.78;1.50;;;;;;;17.67;57.42;102532.75;4739794;30;20043;-89
2022/07/06 07:58:25;;;;;;;7.90;1.85;;;;;;;17.65;56.63;102545.28;4744856;30;20457;-91
2022/07/06 08:00:51;;;;;;;7.38;1.67;;;;;;;17.35;56.77;102543.28;4744150;30;20064;-91
2022/07/06 08:03:21;;;;;;;4.18;1.10;;;;;;;17.17;57.45;102525.00;4752229;30;20051;-89
2022/07/06 08:05:48;;;;;;;5.87;1.30;;;;;;;17.03;57.11;102527.97;4746424;30;20493;-89
2022/07/06 08:08:14;;;;;;;6.43;1.02;;;;;;;17.08;57.55;102535.91;4752390;30;20282;-88
2022/07/06 08:10:39;;;;;;;4.32;1.17;;;;;;;17.41;57.67;102531.59;4730498;30;20032;-89
2022/07/06 08:13:06;;;;;;;4.78;1.33;;;;;;;17.59;57.09;102515.06;4739287;30;20089;-89
2022/07/06 08:15:33;;;;;;;2.38;1.02;;;;;;;17.93;54.15;102521.41;4737496;30;20078;-88
2022/07/06 08:17:59;;;;;;;5.85;1.25;;;;;;;18.12;53.59;102525.34;4732865;30;20378;-89
2022/07/06 08:20:24;;;;;;;4.40;0.75;;;;;;;18.31;54.58;102530.22;4752175;30;20028;-89
2022/07/06 08:22:50;;;;;;;3.90;1.35;;;;;;;18.36;53.58;102522.94;4741878;30;20036;-89
2022/07/06 08:25:16;;;;;;;2.72;0.75;;;;;;;18.29;53.40;102522.22;4752289;30;20043;-89
2022/07/06 08:27:42;;;;;;;2.83;1.13;;;;;;;18.47;54.03;102518.13;4730837;30;20036;-90
2022/07/06 08:30:26;;;;;;;2.72;0.93;;;;;;;18.70;51.04;102521.03;4746742;30;20058;-88
2022/07/06 08:32:52;;;;;;;3.95;0.93;;;;;;;18.57;51.16;102527.72;4738289;30;20036;-88
2022/07/06 08:35:18;;;;;;;3.95;0.80;;;;;;;18.35;51.54;102523.88;4747192;30;20034;-90
2022/07/06 08:37:43;;;;;;;2.78;0.95;;;;;;;18.53;53.05;102527.84;4730798;30;20405;-89
2022/07/06 08:40:09;;;;;;;5.38;1.42;;;;;;;18.78;49.96;102514.59;4737164;30;20028;-89
2022/07/06 08:42:36;;;;;;;3.17;0.90;;;;;;;18.89;50.15;102513.38;4736808;30;20040;-90
2022/07/06 08:45:04;;;;;;;4.07;1.05;;;;;;;18.87;50.06;102519.72;4722879;30;20039;-89
2022/07/06 08:47:31;;;;;;;5.05;1.10;;;;;;;18.75;49.54;102504.81;4722247;30;20157;-89
2022/07/06 08:49:57;;;;;;;4.40;0.80;;;;;;;18.89;48.16;102504.41;4724977;30;20050;-89
2022/07/06 08:52:24;;;;;;;2.67;0.90;;;;;;;19.08;49.36;102510.97;4736975;30;20082;-89
2022/07/06 08:54:51;;;;;;;3.10;0.85;;;;;;;19.04;48.44;102498.59;4723987;30;20055;-90
2022/07/06 08:57:17;;;;;;;3.10;1.05;;;;;;;19.31;49.50;102510.28;4737098;30;20044;-90
2022/07/06 08:59:43;;;;;;;4.00;0.90;;;;;;;19.53;48.28;102507.78;4723166;30;20044;-90
2022/07/06 09:02:10;;;;;;;2.67;0.95;;;;;;;19.41;48.39;102510.88;4724631;30;20414;-89
2022/07/06 09:04:37;;;;;;;2.28;0.88;;;;;;;19.25;48.63;102513.16;4724441;30;20067;-89
2022/07/06 09:07:03;;;;;;;6.03;1.15;;;;;;;19.10;48.83;102509.13;4732969;30;20531;-90
2022/07/06 09:09:32;;;;;;;5.22;1.08;;;;;;;19.05;48.84;102502.16;4736444;30;20023;-89
2022/07/06 09:11:58;;;;;;;2.78;0.88;;;;;;;19.15;47.02;102511.69;4737263;30;20074;-89
2022/07/06 09:14:27;;;;;;;6.28;1.00;;;;;;;18.93;47.20;102506.09;4751099;30;20122;-90
2022/07/06 09:17:05;;;;;;;5.55;1.10;;;;;;;18.75;47.91;102503.94;4736617;30;20040;-89
2022/07/06 09:19:32;;;;;;;4.00;1.00;;;;;;;19.00;47.87;102501.44;4735960;30;20126;-89
2022/07/06 09:21:58;;;;;;;6.05;0.98;;;;;;;19.36;47.87;102501.19;4728506;30;20043;-89
2022/07/06 09:24:26;;;;;;;3.55;1.00;;;;;;;19.64;46.78;102512.78;4719787;30;20435;-89
2022/07/06 09:26:55;;;;;;;6.70;1.40;;;;;;;19.88;48.17;102502.16;4750699;30;20553;-89
2022/07/06 09:29:30;;;;;;;3.50;0.80;;;;;;;20.31;47.19;102503.34;4741230;30;20020;-89
2022/07/06 09:32:05;;;;;;;3.35;0.82;;;;;;;20.60;45.45;102508.56;4737066;30;20089;-88
2022/07/06 09:34:44;;;;;;;4.45;0.80;;;;;;;20.42;44.10;102495.72;4741508;30;20509;-89
2022/07/06 09:37:10;;;;;;;4.38;0.80;;;;;;;20.35;43.68;102503.19;4726109;30;20469;-89
2022/07/06 09:39:36;;;;;;;4.88;1.10;;;;;;;20.25;43.20;102490.09;4736796;30;20043;-90
2022/07/06 09:42:04;;;;;;;3.55;0.73;;;;;;;20.11;43.31;102517.50;4744217;30;20040;-90
2022/07/06 09:44:33;;;;;;;6.88;1.17;;;;;;;20.13;45.20;102507.56;4722425;30;20033;-89
2022/07/06 09:47:03;;;;;;;6.20;0.98;;;;;;;20.25;45.61;102504.44;4731737;30;20036;-90
2022/07/06 09:49:29;;;;;;;4.93;0.85;;;;;;;20.32;42.63;102507.78;4736773;30;20123;-89
2022/07/06 09:51:57;;;;;;;3.40;1.17;;;;;;;20.24;41.89;102502.66;4731213;30;20493;-90
2022/07/06 09:54:23;;;;;;;4.97;1.40;;;;;;;20.24;42.32;102502.66;4735024;30;20052;-89
2022/07/06 09:56:51;;;;;;;5.88;1.65;;;;;;;20.24;42.30;102515.25;4723374;30;20485;-89
2022/07/06 09:59:23;;;;;;;27.00;4.68;;;;;;;20.26;43.00;102510.69;4733384;30;20040;-90
2022/07/06 10:02:06;;;;;;;4.13;0.90;;;;;;;20.26;42.80;102511.56;4733960;30;20056;-88
2022/07/06 10:04:32;;;;;;;2.80;0.90;;;;;;;20.31;41.01;102504.22;4754500;30;20125;-89
2022/07/06 10:06:59;;;;;;;8.95;2.13;;;;;;;20.57;42.50;102523.91;4754295;30;20036;-89
2022/07/06 10:09:27;;;;;;;6.82;1.52;;;;;;;20.54;42.05;102502.47;4739062;30;20051;-89
2022/07/06 10:11:59;;;;;;;5.53;1.63;;;;;;;20.63;41.77;102520.16;4736208;30;20520;-90
2022/07/06 10:14:33;;;;;;;6.35;1.52;;;;;;;20.79;42.65;102524.88;4751865;30;20035;-89
2022/07/06 10:17:02;;;;;;;3.90;1.00;;;;;;;20.82;42.12;102505.03;4754252;30;20066;-88
2022/07/06 10:19:29;;;;;;;4.57;1.58;;;;;;;20.92;41.01;102522.59;4740078;30;20028;-90
2022/07/06 10:22:04;;;;;;;4.80;0.90;;;;;;;20.78;40.50;102517.75;4756223;30;20126;-89
2022/07/06 10:24:43;;;;;;;2.88;0.80;;;;;;;20.83;41.03;102518.44;4754313;30;20048;-89
2022/07/06 10:27:10;;;;;;;9.32;1.05;;;;;;;20.87;40.92;102523.69;4744024;30;20452;-89
2022/07/06 10:29:36;;;;;;;2.55;0.73;;;;;;;20.83;39.29;102512.19;4754683;30;20028;-90
2022/07/06 10:32:08;;;;;;;3.13;0.73;;;;;;;20.87;39.79;102513.84;4737244;30;20105;-89
2022/07/06 10:34:36;;;;;;;2.35;0.90;;;;;;;20.83;39.69;102517.56;4755145;30;20123;-88
2022/07/06 10:37:07;;;;;;;3.88;1.27;;;;;;;20.80;40.07;102521.25;4738607;30;20036;-90
2022/07/06 10:42:39;;;;;;;4.18;0.90;;;;;;;20.77;40.04;102524.06;4752711;30;19957;-91
2022/07/06 10:45:05;;;;;;;5.10;1.52;;;;;;;20.69;40.02;102527.97;4756967;30;20501;-91
2022/07/06 10:47:30;;;;;;;2.33;0.77;;;;;;;20.73;39.24;102524.25;4752700;30;20031;-90
2022/07/06 10:50:02;;;;;;;2.38;0.60;;;;;;;20.64;39.89;102522.75;4727088;30;20127;-91
2022/07/06 10:53:07;;;;;;;2.47;0.90;;;;;;;20.79;39.86;102530.25;4728271;30;20044;-91
2022/07/06 10:55:37;;;;;;;2.58;0.80;;;;;;;20.96;41.00;102505.38;4725174;30;20056;-90
2022/07/06 10:58:05;;;;;;;2.28;0.60;;;;;;;20.99;39.90;102507.06;4751727;30;20072;-90
2022/07/06 11:00:51;;;;;;;2.28;0.73;;;;;;;21.14;40.48;102522.66;4738762;30;20056;-90
2022/07/06 11:03:35;;;;;;;5.05;1.10;;;;;;;21.04;40.06;102519.44;4738920;30;20500;-90
2022/07/06 11:06:19;;;;;;;4.90;0.88;;;;;;;20.94;39.48;102517.16;4732929;30;20501;-91
2022/07/06 11:09:05;;;;;;;5.13;0.85;;;;;;;20.86;39.37;102514.75;4754514;30;20633;-90
2022/07/06 11:11:31;;;;;;;3.75;0.80;;;;;;;20.81;40.79;102516.75;4756840;30;20424;-90
2022/07/06 11:14:01;;;;;;;4.93;1.00;;;;;;;20.90;40.14;102519.09;4741333;30;20119;-90
2022/07/06 11:16:29;;;;;;;7.82;0.77;;;;;;;21.12;40.11;102521.81;4753411;30;20514;-90
2022/07/06 11:19:09;;;;;;;2.03;0.80;;;;;;;21.32;39.43;102517.47;4752896;30;20132;-90
2022/07/06 11:21:40;;;;;;;;;;;;;;;21.45;39.71;102516.91;4754046;30;20458;-91
2022/07/06 11:24:07;;;;;;;1.15;0.40;;;;;;;21.27;38.03;102493.41;4733200;30;20376;-91
2022/07/06 11:26:51;;;;;;;3.88;0.75;;;;;;;21.35;37.31;102495.78;4734106;30;20484;-91
2022/07/06 11:29:20;;;;;;;1.23;0.50;;;;;;;21.63;38.56;102509.00;4736547;30;20037;-90
2022/07/06 11:31:54;;;;;;;2.38;0.70;;;;;;;21.76;37.92;102495.88;4725432;30;20138;-90
2022/07/06 11:34:34;;;;;;;3.80;0.73;;;;;;;22.04;36.73;102501.84;4733151;30;20048;-90